sensor_id;sensor_type;location;lat;lon;timestamp;temperature;humidity
68215;DHT22;55036;52.138;5.236;2023-08-12T00:00:57;21.60;82.40
68215;DHT22;55036;52.138;5.236;2023-08-12T00:03:24;21.60;82.70
68215;DHT22;55036;52.138;5.236;2023-08-12T00:05:52;21.60;82.80
68215;DHT22;55036;52.138;5.236;2023-08-12T00:08:19;21.60;82.70
68215;DHT22;55036;52.138;5.236;2023-08-12T00:10:46;21.60;82.80
68215;DHT22;55036;52.138;5.236;2023-08-12T00:13:13;21.60;83.00
68215;DHT22;55036;52.138;5.236;2023-08-12T00:15:44;21.60;83.10
68215;DHT22;55036;52.138;5.236;2023-08-12T00:18:11;21.60;83.20
68215;DHT22;55036;52.138;5.236;2023-08-12T00:20:38;21.60;83.30
68215;DHT22;55036;52.138;5.236;2023-08-12T00:23:05;21.50;83.40
68215;DHT22;55036;52.138;5.236;2023-08-12T00:25:32;21.50;83.40
68215;DHT22;55036;52.138;5.236;2023-08-12T00:27:58;21.60;83.50
68215;DHT22;55036;52.138;5.236;2023-08-12T00:30:25;21.50;83.50
68215;DHT22;55036;52.138;5.236;2023-08-12T00:32:52;21.50;83.60
68215;DHT22;55036;52.138;5.236;2023-08-12T00:35:19;21.50;83.80
68215;DHT22;55036;52.138;5.236;2023-08-12T00:37:46;21.40;83.90
68215;DHT22;55036;52.138;5.236;2023-08-12T00:40:13;21.40;84.00
68215;DHT22;55036;52.138;5.236;2023-08-12T01:21:34;21.20;86.20
68215;DHT22;55036;52.138;5.236;2023-08-12T01:24:03;21.20;86.20
68215;DHT22;55036;52.138;5.236;2023-08-12T01:26:30;21.20;86.20
68215;DHT22;55036;52.138;5.236;2023-08-12T01:28:56;21.30;86.40
68215;DHT22;55036;52.138;5.236;2023-08-12T01:31:42;21.30;86.30
68215;DHT22;55036;52.138;5.236;2023-08-12T01:35:01;21.20;86.90
68215;DHT22;55036;52.138;5.236;2023-08-12T01:37:06;21.10;86.70
68215;DHT22;55036;52.138;5.236;2023-08-12T01:39:36;21.10;86.80
68215;DHT22;55036;52.138;5.236;2023-08-12T01:42:06;21.10;86.80
68215;DHT22;55036;52.138;5.236;2023-08-12T01:44:33;21.10;87.20
68215;DHT22;55036;52.138;5.236;2023-08-12T01:47:00;21.00;89.10
68215;DHT22;55036;52.138;5.236;2023-08-12T01:49:27;21.10;87.80
68215;DHT22;55036;52.138;5.236;2023-08-12T01:51:54;21.10;87.90
68215;DHT22;55036;52.138;5.236;2023-08-12T01:54:21;21.10;87.40
68215;DHT22;55036;52.138;5.236;2023-08-12T01:56:47;21.10;87.40
68215;DHT22;55036;52.138;5.236;2023-08-12T01:59:14;21.10;87.40
68215;DHT22;55036;52.138;5.236;2023-08-12T02:01:41;21.10;87.40
68215;DHT22;55036;52.138;5.236;2023-08-12T02:04:08;21.10;87.50
68215;DHT22;55036;52.138;5.236;2023-08-12T02:06:34;21.10;88.70
68215;DHT22;55036;52.138;5.236;2023-08-12T02:09:01;21.10;87.80
68215;DHT22;55036;52.138;5.236;2023-08-12T02:11:28;21.00;88.30
68215;DHT22;55036;52.138;5.236;2023-08-12T02:13:55;21.00;88.20
68215;DHT22;55036;52.138;5.236;2023-08-12T02:16:21;21.10;88.10
68215;DHT22;55036;52.138;5.236;2023-08-12T02:18:48;21.10;88.10
68215;DHT22;55036;52.138;5.236;2023-08-12T02:21:15;21.10;88.20
68215;DHT22;55036;52.138;5.236;2023-08-12T02:23:42;21.10;88.10
68215;DHT22;55036;52.138;5.236;2023-08-12T02:26:10;21.10;88.70
68215;DHT22;55036;52.138;5.236;2023-08-12T02:28:37;21.10;88.50
68215;DHT22;55036;52.138;5.236;2023-08-12T02:31:04;21.10;88.80
68215;DHT22;55036;52.138;5.236;2023-08-12T02:33:30;21.10;89.50
68215;DHT22;55036;52.138;5.236;2023-08-12T02:35:57;21.10;89.20
68215;DHT22;55036;52.138;5.236;2023-08-12T02:38:24;21.10;89.30
68215;DHT22;55036;52.138;5.236;2023-08-12T02:40:51;21.10;89.50
68215;DHT22;55036;52.138;5.236;2023-08-12T02:43:18;21.10;90.30
68215;DHT22;55036;52.138;5.236;2023-08-12T02:45:44;21.10;90.00
68215;DHT22;55036;52.138;5.236;2023-08-12T02:48:12;21.10;90.10
68215;DHT22;55036;52.138;5.236;2023-08-12T02:50:39;21.20;89.80
68215;DHT22;55036;52.138;5.236;2023-08-12T02:53:07;21.20;89.90
68215;DHT22;55036;52.138;5.236;2023-08-12T02:55:34;21.20;89.80
68215;DHT22;55036;52.138;5.236;2023-08-12T02:58:01;21.20;90.10
68215;DHT22;55036;52.138;5.236;2023-08-12T03:00:28;21.20;90.10
68215;DHT22;55036;52.138;5.236;2023-08-12T03:02:55;21.20;89.90
68215;DHT22;55036;52.138;5.236;2023-08-12T03:05:22;21.20;90.20
68215;DHT22;55036;52.138;5.236;2023-08-12T03:07:50;21.20;90.30
68215;DHT22;55036;52.138;5.236;2023-08-12T03:10:18;21.20;90.40
68215;DHT22;55036;52.138;5.236;2023-08-12T03:12:45;21.20;90.20
68215;DHT22;55036;52.138;5.236;2023-08-12T03:15:12;21.10;90.90
68215;DHT22;55036;52.138;5.236;2023-08-12T03:17:39;21.20;90.70
68215;DHT22;55036;52.138;5.236;2023-08-12T03:20:09;21.20;90.40
68215;DHT22;55036;52.138;5.236;2023-08-12T03:22:36;21.20;90.90
68215;DHT22;55036;52.138;5.236;2023-08-12T03:25:04;21.20;90.80
68215;DHT22;55036;52.138;5.236;2023-08-12T03:27:31;21.20;90.70
68215;DHT22;55036;52.138;5.236;2023-08-12T03:29:58;21.20;90.70
68215;DHT22;55036;52.138;5.236;2023-08-12T03:32:25;21.20;90.60
68215;DHT22;55036;52.138;5.236;2023-08-12T03:34:52;21.30;90.50
68215;DHT22;55036;52.138;5.236;2023-08-12T03:37:19;21.30;90.60
68215;DHT22;55036;52.138;5.236;2023-08-12T03:39:46;21.20;91.10
68215;DHT22;55036;52.138;5.236;2023-08-12T03:42:13;21.20;91.10
68215;DHT22;55036;52.138;5.236;2023-08-12T03:44:41;21.20;90.90
68215;DHT22;55036;52.138;5.236;2023-08-12T03:47:07;21.30;90.80
68215;DHT22;55036;52.138;5.236;2023-08-12T03:49:34;21.30;90.80
68215;DHT22;55036;52.138;5.236;2023-08-12T03:52:01;21.30;90.70
68215;DHT22;55036;52.138;5.236;2023-08-12T03:54:28;21.30;91.20
68215;DHT22;55036;52.138;5.236;2023-08-12T03:56:55;21.20;91.20
68215;DHT22;55036;52.138;5.236;2023-08-12T03:59:22;21.10;91.70
68215;DHT22;55036;52.138;5.236;2023-08-12T04:01:49;21.10;91.50
68215;DHT22;55036;52.138;5.236;2023-08-12T04:04:15;21.10;92.20
68215;DHT22;55036;52.138;5.236;2023-08-12T04:06:42;21.10;92.20
68215;DHT22;55036;52.138;5.236;2023-08-12T04:09:09;21.10;91.90
68215;DHT22;55036;52.138;5.236;2023-08-12T04:11:36;21.20;92.00
68215;DHT22;55036;52.138;5.236;2023-08-12T04:14:03;21.10;92.00
68215;DHT22;55036;52.138;5.236;2023-08-12T04:16:29;21.20;91.80
68215;DHT22;55036;52.138;5.236;2023-08-12T04:18:56;21.20;91.90
68215;DHT22;55036;52.138;5.236;2023-08-12T04:21:23;21.20;91.90
68215;DHT22;55036;52.138;5.236;2023-08-12T04:23:50;21.20;91.80
68215;DHT22;55036;52.138;5.236;2023-08-12T04:26:17;21.30;91.70
68215;DHT22;55036;52.138;5.236;2023-08-12T04:28:44;21.30;91.70
68215;DHT22;55036;52.138;5.236;2023-08-12T04:31:10;21.30;91.90
68215;DHT22;55036;52.138;5.236;2023-08-12T04:33:37;21.30;92.00
68215;DHT22;55036;52.138;5.236;2023-08-12T04:36:04;21.20;92.50
68215;DHT22;55036;52.138;5.236;2023-08-12T04:38:31;21.30;92.30
68215;DHT22;55036;52.138;5.236;2023-08-12T04:40:58;21.20;92.80
68215;DHT22;55036;52.138;5.236;2023-08-12T04:43:25;21.20;92.70
68215;DHT22;55036;52.138;5.236;2023-08-12T04:45:52;21.20;92.80
68215;DHT22;55036;52.138;5.236;2023-08-12T04:48:19;21.20;93.00
68215;DHT22;55036;52.138;5.236;2023-08-12T04:50:46;21.20;93.00
68215;DHT22;55036;52.138;5.236;2023-08-12T04:53:13;21.30;92.70
68215;DHT22;55036;52.138;5.236;2023-08-12T04:55:40;21.40;92.80
68215;DHT22;55036;52.138;5.236;2023-08-12T04:58:11;21.40;92.70
68215;DHT22;55036;52.138;5.236;2023-08-12T05:00:37;21.40;92.60
68215;DHT22;55036;52.138;5.236;2023-08-12T05:03:04;21.40;92.50
68215;DHT22;55036;52.138;5.236;2023-08-12T05:05:31;21.40;92.60
68215;DHT22;55036;52.138;5.236;2023-08-12T05:07:58;21.40;92.60
68215;DHT22;55036;52.138;5.236;2023-08-12T05:10:25;21.40;92.30
68215;DHT22;55036;52.138;5.236;2023-08-12T05:12:51;21.40;92.60
68215;DHT22;55036;52.138;5.236;2023-08-12T05:15:21;21.40;92.70
68215;DHT22;55036;52.138;5.236;2023-08-12T05:17:48;21.40;92.90
68215;DHT22;55036;52.138;5.236;2023-08-12T05:20:15;21.40;93.20
68215;DHT22;55036;52.138;5.236;2023-08-12T05:22:41;21.40;93.10
68215;DHT22;55036;52.138;5.236;2023-08-12T05:25:08;21.30;93.40
68215;DHT22;55036;52.138;5.236;2023-08-12T05:27:35;21.40;93.40
68215;DHT22;55036;52.138;5.236;2023-08-12T05:30:02;21.30;93.50
68215;DHT22;55036;52.138;5.236;2023-08-12T05:32:29;21.40;93.50
68215;DHT22;55036;52.138;5.236;2023-08-12T05:34:56;21.40;93.40
68215;DHT22;55036;52.138;5.236;2023-08-12T05:37:22;21.40;93.70
68215;DHT22;55036;52.138;5.236;2023-08-12T05:39:49;21.30;94.10
68215;DHT22;55036;52.138;5.236;2023-08-12T05:42:16;21.30;93.90
68215;DHT22;55036;52.138;5.236;2023-08-12T05:44:42;21.30;94.20
68215;DHT22;55036;52.138;5.236;2023-08-12T05:47:09;21.30;94.20
68215;DHT22;55036;52.138;5.236;2023-08-12T05:49:36;21.30;94.10
68215;DHT22;55036;52.138;5.236;2023-08-12T05:52:03;21.40;94.00
68215;DHT22;55036;52.138;5.236;2023-08-12T05:54:30;21.40;94.10
68215;DHT22;55036;52.138;5.236;2023-08-12T05:56:58;21.40;94.10
68215;DHT22;55036;52.138;5.236;2023-08-12T05:59:24;21.40;94.20
68215;DHT22;55036;52.138;5.236;2023-08-12T06:01:51;21.40;94.10
68215;DHT22;55036;52.138;5.236;2023-08-12T06:04:18;21.40;94.30
68215;DHT22;55036;52.138;5.236;2023-08-12T06:06:44;21.30;94.30
68215;DHT22;55036;52.138;5.236;2023-08-12T06:09:11;21.30;94.60
68215;DHT22;55036;52.138;5.236;2023-08-12T06:11:38;21.30;94.40
68215;DHT22;55036;52.138;5.236;2023-08-12T06:14:05;21.40;94.20
68215;DHT22;55036;52.138;5.236;2023-08-12T06:16:31;21.40;94.00
68215;DHT22;55036;52.138;5.236;2023-08-12T06:19:00;21.40;93.90
68215;DHT22;55036;52.138;5.236;2023-08-12T06:21:26;21.40;93.90
68215;DHT22;55036;52.138;5.236;2023-08-12T06:23:53;21.40;94.00
68215;DHT22;55036;52.138;5.236;2023-08-12T06:26:20;21.40;94.00
68215;DHT22;55036;52.138;5.236;2023-08-12T06:28:47;21.40;94.00
68215;DHT22;55036;52.138;5.236;2023-08-12T06:31:13;21.40;94.00
68215;DHT22;55036;52.138;5.236;2023-08-12T06:33:40;21.30;94.00
68215;DHT22;55036;52.138;5.236;2023-08-12T06:36:07;21.30;94.20
68215;DHT22;55036;52.138;5.236;2023-08-12T06:38:34;21.30;94.20
68215;DHT22;55036;52.138;5.236;2023-08-12T06:41:00;21.20;94.60
68215;DHT22;55036;52.138;5.236;2023-08-12T06:43:27;21.20;94.50
68215;DHT22;55036;52.138;5.236;2023-08-12T06:45:55;21.10;94.50
68215;DHT22;55036;52.138;5.236;2023-08-12T06:48:23;21.10;94.60
68215;DHT22;55036;52.138;5.236;2023-08-12T06:50:53;21.20;94.30
68215;DHT22;55036;52.138;5.236;2023-08-12T06:53:21;21.30;94.30
68215;DHT22;55036;52.138;5.236;2023-08-12T06:55:47;21.30;94.20
68215;DHT22;55036;52.138;5.236;2023-08-12T06:58:14;21.30;94.00
68215;DHT22;55036;52.138;5.236;2023-08-12T07:00:41;21.30;93.90
68215;DHT22;55036;52.138;5.236;2023-08-12T07:03:09;21.30;94.00
68215;DHT22;55036;52.138;5.236;2023-08-12T07:05:35;21.30;94.00
68215;DHT22;55036;52.138;5.236;2023-08-12T07:08:02;21.40;93.90
68215;DHT22;55036;52.138;5.236;2023-08-12T07:10:29;21.40;93.80
68215;DHT22;55036;52.138;5.236;2023-08-12T07:12:56;21.40;93.90
68215;DHT22;55036;52.138;5.236;2023-08-12T07:15:23;21.40;93.80
68215;DHT22;55036;52.138;5.236;2023-08-12T07:17:49;21.40;93.80
68215;DHT22;55036;52.138;5.236;2023-08-12T07:20:16;21.40;94.00
68215;DHT22;55036;52.138;5.236;2023-08-12T07:22:43;21.40;94.00
68215;DHT22;55036;52.138;5.236;2023-08-12T07:25:10;21.30;94.00
68215;DHT22;55036;52.138;5.236;2023-08-12T07:27:36;21.30;94.20
68215;DHT22;55036;52.138;5.236;2023-08-12T07:30:03;21.30;94.20
68215;DHT22;55036;52.138;5.236;2023-08-12T07:32:30;21.30;94.20
68215;DHT22;55036;52.138;5.236;2023-08-12T07:34:57;21.30;94.10
68215;DHT22;55036;52.138;5.236;2023-08-12T07:37:25;21.40;94.10
68215;DHT22;55036;52.138;5.236;2023-08-12T07:39:51;21.50;94.50
68215;DHT22;55036;52.138;5.236;2023-08-12T07:42:19;21.50;93.80
68215;DHT22;55036;52.138;5.236;2023-08-12T07:44:46;21.50;93.90
68215;DHT22;55036;52.138;5.236;2023-08-12T07:47:13;21.50;94.00
68215;DHT22;55036;52.138;5.236;2023-08-12T07:49:39;21.50;93.90
68215;DHT22;55036;52.138;5.236;2023-08-12T07:52:06;21.50;93.80
68215;DHT22;55036;52.138;5.236;2023-08-12T07:54:33;21.50;93.70
68215;DHT22;55036;52.138;5.236;2023-08-12T07:57:00;21.60;93.70
68215;DHT22;55036;52.138;5.236;2023-08-12T07:59:26;21.60;93.60
68215;DHT22;55036;52.138;5.236;2023-08-12T08:01:53;21.60;93.50
68215;DHT22;55036;52.138;5.236;2023-08-12T08:04:20;21.60;93.70
68215;DHT22;55036;52.138;5.236;2023-08-12T08:06:46;21.70;93.60
68215;DHT22;55036;52.138;5.236;2023-08-12T08:09:17;21.70;93.60
68215;DHT22;55036;52.138;5.236;2023-08-12T08:11:43;21.70;93.40
68215;DHT22;55036;52.138;5.236;2023-08-12T08:14:10;21.70;93.80
68215;DHT22;55036;52.138;5.236;2023-08-12T08:16:37;21.70;93.40
68215;DHT22;55036;52.138;5.236;2023-08-12T08:19:07;21.70;93.40
68215;DHT22;55036;52.138;5.236;2023-08-12T08:21:39;21.70;93.50
68215;DHT22;55036;52.138;5.236;2023-08-12T08:24:06;21.80;93.50
68215;DHT22;55036;52.138;5.236;2023-08-12T08:26:33;21.80;93.40
68215;DHT22;55036;52.138;5.236;2023-08-12T08:28:59;21.90;93.40
68215;DHT22;55036;52.138;5.236;2023-08-12T08:31:26;21.90;93.40
68215;DHT22;55036;52.138;5.236;2023-08-12T08:33:53;21.90;93.40
68215;DHT22;55036;52.138;5.236;2023-08-12T08:36:19;21.90;93.30
68215;DHT22;55036;52.138;5.236;2023-08-12T08:38:46;21.90;93.20
68215;DHT22;55036;52.138;5.236;2023-08-12T08:41:13;21.90;93.20
68215;DHT22;55036;52.138;5.236;2023-08-12T08:43:43;21.90;92.90
68215;DHT22;55036;52.138;5.236;2023-08-12T08:46:16;21.70;92.70
68215;DHT22;55036;52.138;5.236;2023-08-12T08:48:43;21.50;92.40
68215;DHT22;55036;52.138;5.236;2023-08-12T08:51:13;21.30;92.00
68215;DHT22;55036;52.138;5.236;2023-08-12T08:53:41;21.20;91.90
68215;DHT22;55036;52.138;5.236;2023-08-12T08:56:08;21.10;91.00
68215;DHT22;55036;52.138;5.236;2023-08-12T08:58:41;20.90;91.00
68215;DHT22;55036;52.138;5.236;2023-08-12T09:01:09;20.80;90.90
68215;DHT22;55036;52.138;5.236;2023-08-12T09:03:37;20.70;91.00
68215;DHT22;55036;52.138;5.236;2023-08-12T09:06:04;20.70;90.70
68215;DHT22;55036;52.138;5.236;2023-08-12T09:08:32;20.60;91.00
68215;DHT22;55036;52.138;5.236;2023-08-12T09:11:00;20.70;91.20
68215;DHT22;55036;52.138;5.236;2023-08-12T09:13:29;20.70;91.00
68215;DHT22;55036;52.138;5.236;2023-08-12T09:15:56;20.70;90.90
68215;DHT22;55036;52.138;5.236;2023-08-12T09:18:23;20.70;90.70
68215;DHT22;55036;52.138;5.236;2023-08-12T09:20:51;20.70;90.90
68215;DHT22;55036;52.138;5.236;2023-08-12T09:23:18;20.80;90.90
68215;DHT22;55036;52.138;5.236;2023-08-12T09:25:45;20.80;90.70
68215;DHT22;55036;52.138;5.236;2023-08-12T09:28:12;20.80;90.70
68215;DHT22;55036;52.138;5.236;2023-08-12T09:30:40;20.80;90.80
68215;DHT22;55036;52.138;5.236;2023-08-12T09:33:08;20.80;90.70
68215;DHT22;55036;52.138;5.236;2023-08-12T09:35:39;21.00;90.50
68215;DHT22;55036;52.138;5.236;2023-08-12T09:38:09;21.10;90.70
68215;DHT22;55036;52.138;5.236;2023-08-12T09:40:37;21.20;90.70
68215;DHT22;55036;52.138;5.236;2023-08-12T09:43:04;21.30;90.80
68215;DHT22;55036;52.138;5.236;2023-08-12T09:45:33;21.50;90.30
68215;DHT22;55036;52.138;5.236;2023-08-12T09:48:01;21.50;90.20
68215;DHT22;55036;52.138;5.236;2023-08-12T09:50:28;21.60;90.10
68215;DHT22;55036;52.138;5.236;2023-08-12T09:52:55;21.60;89.80
68215;DHT22;55036;52.138;5.236;2023-08-12T09:55:24;21.60;89.40
68215;DHT22;55036;52.138;5.236;2023-08-12T09:57:52;21.60;88.40
68215;DHT22;55036;52.138;5.236;2023-08-12T10:00:21;21.60;88.40
68215;DHT22;55036;52.138;5.236;2023-08-12T10:02:50;21.60;87.40
68215;DHT22;55036;52.138;5.236;2023-08-12T10:05:25;21.50;87.30
68215;DHT22;55036;52.138;5.236;2023-08-12T10:07:54;21.60;88.30
68215;DHT22;55036;52.138;5.236;2023-08-12T10:10:21;21.70;88.80
68215;DHT22;55036;52.138;5.236;2023-08-12T10:12:51;21.90;88.70
68215;DHT22;55036;52.138;5.236;2023-08-12T10:15:21;22.20;89.20
68215;DHT22;55036;52.138;5.236;2023-08-12T10:17:51;22.40;88.80
68215;DHT22;55036;52.138;5.236;2023-08-12T10:20:23;22.60;89.30
68215;DHT22;55036;52.138;5.236;2023-08-12T10:22:51;22.60;82.90
68215;DHT22;55036;52.138;5.236;2023-08-12T10:25:19;22.50;85.60
68215;DHT22;55036;52.138;5.236;2023-08-12T10:27:49;22.80;85.80
68215;DHT22;55036;52.138;5.236;2023-08-12T10:30:16;22.90;85.40
68215;DHT22;55036;52.138;5.236;2023-08-12T10:32:43;23.20;85.60
68215;DHT22;55036;52.138;5.236;2023-08-12T10:35:10;23.30;85.00
68215;DHT22;55036;52.138;5.236;2023-08-12T10:37:37;23.40;84.50
68215;DHT22;55036;52.138;5.236;2023-08-12T10:40:05;23.40;83.70
68215;DHT22;55036;52.138;5.236;2023-08-12T10:42:48;23.40;83.50
68215;DHT22;55036;52.138;5.236;2023-08-12T10:45:17;23.30;81.00
68215;DHT22;55036;52.138;5.236;2023-08-12T10:50:27;23.40;78.60
68215;DHT22;55036;52.138;5.236;2023-08-12T10:52:54;23.40;80.60
68215;DHT22;55036;52.138;5.236;2023-08-12T10:55:22;23.50;80.80
68215;DHT22;55036;52.138;5.236;2023-08-12T10:57:51;23.50;77.90
68215;DHT22;55036;52.138;5.236;2023-08-12T11:00:26;23.60;78.70
68215;DHT22;55036;52.138;5.236;2023-08-12T11:02:56;23.80;79.60
68215;DHT22;55036;52.138;5.236;2023-08-12T11:05:24;24.00;78.20
68215;DHT22;55036;52.138;5.236;2023-08-12T11:08:02;24.00;77.30
68215;DHT22;55036;52.138;5.236;2023-08-12T11:10:32;24.00;75.20
68215;DHT22;55036;52.138;5.236;2023-08-12T11:13:01;24.10;75.50
68215;DHT22;55036;52.138;5.236;2023-08-12T11:15:44;24.10;75.40
68215;DHT22;55036;52.138;5.236;2023-08-12T11:18:15;24.10;73.70
68215;DHT22;55036;52.138;5.236;2023-08-12T11:20:47;24.00;70.40
68215;DHT22;55036;52.138;5.236;2023-08-12T11:23:14;23.90;71.40
68215;DHT22;55036;52.138;5.236;2023-08-12T11:25:43;24.00;72.50
68215;DHT22;55036;52.138;5.236;2023-08-12T11:28:11;24.00;71.60
68215;DHT22;55036;52.138;5.236;2023-08-12T11:30:40;24.20;72.00
68215;DHT22;55036;52.138;5.236;2023-08-12T11:33:09;24.20;71.10
68215;DHT22;55036;52.138;5.236;2023-08-12T11:35:37;24.20;69.60
68215;DHT22;55036;52.138;5.236;2023-08-12T11:38:05;24.20;69.00
68215;DHT22;55036;52.138;5.236;2023-08-12T11:40:34;24.30;69.40
68215;DHT22;55036;52.138;5.236;2023-08-12T11:43:01;24.40;69.80
68215;DHT22;55036;52.138;5.236;2023-08-12T11:45:33;24.60;69.50
68215;DHT22;55036;52.138;5.236;2023-08-12T11:48:00;24.70;69.20
68215;DHT22;55036;52.138;5.236;2023-08-12T11:50:27;24.80;68.50
68215;DHT22;55036;52.138;5.236;2023-08-12T11:52:55;24.90;68.90
68215;DHT22;55036;52.138;5.236;2023-08-12T11:55:23;24.90;68.10
68215;DHT22;55036;52.138;5.236;2023-08-12T11:57:54;25.00;67.40
68215;DHT22;55036;52.138;5.236;2023-08-12T12:00:21;24.90;66.00
68215;DHT22;55036;52.138;5.236;2023-08-12T12:02:51;24.70;66.20
68215;DHT22;55036;52.138;5.236;2023-08-12T12:05:22;24.50;65.90
68215;DHT22;55036;52.138;5.236;2023-08-12T12:07:51;24.60;67.20
68215;DHT22;55036;52.138;5.236;2023-08-12T12:10:21;24.70;67.70
68215;DHT22;55036;52.138;5.236;2023-08-12T12:12:48;24.90;68.00
68215;DHT22;55036;52.138;5.236;2023-08-12T12:15:15;25.10;66.50
68215;DHT22;55036;52.138;5.236;2023-08-12T12:17:45;25.10;61.80
68215;DHT22;55036;52.138;5.236;2023-08-12T12:20:12;25.00;62.70
68215;DHT22;55036;52.138;5.236;2023-08-12T12:22:42;25.00;62.60
68215;DHT22;55036;52.138;5.236;2023-08-12T12:25:12;24.90;62.70
68215;DHT22;55036;52.138;5.236;2023-08-12T12:27:40;25.00;63.00
68215;DHT22;55036;52.138;5.236;2023-08-12T12:30:08;25.10;63.10
68215;DHT22;55036;52.138;5.236;2023-08-12T12:32:36;25.10;61.60
68215;DHT22;55036;52.138;5.236;2023-08-12T12:35:04;25.00;61.80
68215;DHT22;55036;52.138;5.236;2023-08-12T12:37:31;25.00;63.00
68215;DHT22;55036;52.138;5.236;2023-08-12T12:39:57;25.10;61.80
68215;DHT22;55036;52.138;5.236;2023-08-12T12:42:24;25.30;62.30
68215;DHT22;55036;52.138;5.236;2023-08-12T12:44:51;25.40;60.90
68215;DHT22;55036;52.138;5.236;2023-08-12T12:47:19;25.40;61.20
68215;DHT22;55036;52.138;5.236;2023-08-12T12:49:45;25.40;60.80
68215;DHT22;55036;52.138;5.236;2023-08-12T12:52:12;25.50;59.50
68215;DHT22;55036;52.138;5.236;2023-08-12T12:54:39;25.40;58.40
68215;DHT22;55036;52.138;5.236;2023-08-12T12:57:06;25.20;59.70
68215;DHT22;55036;52.138;5.236;2023-08-12T12:59:33;25.30;59.60
68215;DHT22;55036;52.138;5.236;2023-08-12T13:02:00;25.30;59.40
68215;DHT22;55036;52.138;5.236;2023-08-12T13:04:26;25.20;58.90
68215;DHT22;55036;52.138;5.236;2023-08-12T13:06:53;25.10;58.80
68215;DHT22;55036;52.138;5.236;2023-08-12T13:09:20;25.00;59.30
68215;DHT22;55036;52.138;5.236;2023-08-12T13:11:46;25.00;59.60
68215;DHT22;55036;52.138;5.236;2023-08-12T13:14:13;24.90;60.00
68215;DHT22;55036;52.138;5.236;2023-08-12T13:16:40;25.20;60.30
68215;DHT22;55036;52.138;5.236;2023-08-12T13:19:07;25.20;59.70
68215;DHT22;55036;52.138;5.236;2023-08-12T13:21:33;25.00;59.60
68215;DHT22;55036;52.138;5.236;2023-08-12T13:24:01;24.90;59.90
68215;DHT22;55036;52.138;5.236;2023-08-12T13:26:30;24.70;59.20
68215;DHT22;55036;52.138;5.236;2023-08-12T13:28:57;24.90;60.10
68215;DHT22;55036;52.138;5.236;2023-08-12T13:31:23;25.10;60.40
68215;DHT22;55036;52.138;5.236;2023-08-12T13:33:51;25.20;59.00
68215;DHT22;55036;52.138;5.236;2023-08-12T13:36:18;25.50;58.60
68215;DHT22;55036;52.138;5.236;2023-08-12T13:38:45;25.30;56.00
68215;DHT22;55036;52.138;5.236;2023-08-12T13:41:12;25.30;55.60
68215;DHT22;55036;52.138;5.236;2023-08-12T13:43:38;25.40;52.50
68215;DHT22;55036;52.138;5.236;2023-08-12T13:46:05;25.20;53.60
68215;DHT22;55036;52.138;5.236;2023-08-12T13:48:32;25.10;54.30
68215;DHT22;55036;52.138;5.236;2023-08-12T13:50:59;25.20;53.20
68215;DHT22;55036;52.138;5.236;2023-08-12T13:53:27;25.00;54.10
68215;DHT22;55036;52.138;5.236;2023-08-12T13:55:54;24.90;54.00
68215;DHT22;55036;52.138;5.236;2023-08-12T13:58:21;24.80;54.60
68215;DHT22;55036;52.138;5.236;2023-08-12T14:00:50;24.90;54.10
68215;DHT22;55036;52.138;5.236;2023-08-12T14:03:17;24.90;54.90
68215;DHT22;55036;52.138;5.236;2023-08-12T14:05:44;25.20;54.60
68215;DHT22;55036;52.138;5.236;2023-08-12T14:08:11;25.30;53.70
68215;DHT22;55036;52.138;5.236;2023-08-12T14:10:38;25.30;52.90
68215;DHT22;55036;52.138;5.236;2023-08-12T14:13:05;25.10;51.40
68215;DHT22;55036;52.138;5.236;2023-08-12T14:15:33;25.00;52.70
68215;DHT22;55036;52.138;5.236;2023-08-12T14:18:03;25.00;52.40
68215;DHT22;55036;52.138;5.236;2023-08-12T14:20:30;25.00;53.00
68215;DHT22;55036;52.138;5.236;2023-08-12T14:22:57;25.00;53.20
68215;DHT22;55036;52.138;5.236;2023-08-12T14:25:24;24.90;53.20
68215;DHT22;55036;52.138;5.236;2023-08-12T14:27:50;24.90;53.70
68215;DHT22;55036;52.138;5.236;2023-08-12T14:30:18;25.00;54.20
68215;DHT22;55036;52.138;5.236;2023-08-12T14:32:46;25.10;54.10
68215;DHT22;55036;52.138;5.236;2023-08-12T14:35:16;25.10;54.10
68215;DHT22;55036;52.138;5.236;2023-08-12T14:37:43;25.10;54.30
68215;DHT22;55036;52.138;5.236;2023-08-12T14:40:10;25.10;54.50
68215;DHT22;55036;52.138;5.236;2023-08-12T14:42:37;25.00;54.80
68215;DHT22;55036;52.138;5.236;2023-08-12T14:45:05;25.10;54.50
68215;DHT22;55036;52.138;5.236;2023-08-12T14:47:32;25.00;54.90
68215;DHT22;55036;52.138;5.236;2023-08-12T14:49:58;25.00;55.40
68215;DHT22;55036;52.138;5.236;2023-08-12T14:52:25;24.90;54.60
68215;DHT22;55036;52.138;5.236;2023-08-12T14:54:52;24.70;55.40
68215;DHT22;55036;52.138;5.236;2023-08-12T14:57:19;24.30;55.40
68215;DHT22;55036;52.138;5.236;2023-08-12T14:59:46;24.30;56.10
68215;DHT22;55036;52.138;5.236;2023-08-12T15:02:21;24.20;56.20
68215;DHT22;55036;52.138;5.236;2023-08-12T15:04:50;24.10;56.20
68215;DHT22;55036;52.138;5.236;2023-08-12T15:07:17;24.00;56.30
68215;DHT22;55036;52.138;5.236;2023-08-12T15:09:45;24.10;56.70
68215;DHT22;55036;52.138;5.236;2023-08-12T15:12:12;24.10;57.10
68215;DHT22;55036;52.138;5.236;2023-08-12T15:14:39;24.20;56.70
68215;DHT22;55036;52.138;5.236;2023-08-12T15:17:06;24.30;56.80
68215;DHT22;55036;52.138;5.236;2023-08-12T15:19:33;24.50;56.30
68215;DHT22;55036;52.138;5.236;2023-08-12T15:22:00;24.50;56.30
68215;DHT22;55036;52.138;5.236;2023-08-12T15:24:26;24.40;56.40
68215;DHT22;55036;52.138;5.236;2023-08-12T15:26:53;24.40;56.30
68215;DHT22;55036;52.138;5.236;2023-08-12T15:29:20;24.40;56.60
68215;DHT22;55036;52.138;5.236;2023-08-12T15:31:47;24.40;56.50
68215;DHT22;55036;52.138;5.236;2023-08-12T15:34:14;24.30;56.60
68215;DHT22;55036;52.138;5.236;2023-08-12T15:36:41;24.30;56.30
68215;DHT22;55036;52.138;5.236;2023-08-12T15:39:08;24.30;56.00
68215;DHT22;55036;52.138;5.236;2023-08-12T15:41:41;24.20;56.00
68215;DHT22;55036;52.138;5.236;2023-08-12T15:44:09;24.30;55.60
68215;DHT22;55036;52.138;5.236;2023-08-12T15:46:36;24.20;55.00
68215;DHT22;55036;52.138;5.236;2023-08-12T15:49:04;24.30;54.20
68215;DHT22;55036;52.138;5.236;2023-08-12T15:51:33;24.30;54.40
68215;DHT22;55036;52.138;5.236;2023-08-12T15:54:01;24.30;54.20
68215;DHT22;55036;52.138;5.236;2023-08-12T15:56:28;24.30;53.80
68215;DHT22;55036;52.138;5.236;2023-08-12T15:58:59;24.20;53.20
68215;DHT22;55036;52.138;5.236;2023-08-12T16:01:26;24.30;53.40
68215;DHT22;55036;52.138;5.236;2023-08-12T16:03:52;24.30;52.90
68215;DHT22;55036;52.138;5.236;2023-08-12T16:06:19;24.20;51.90
68215;DHT22;55036;52.138;5.236;2023-08-12T16:08:46;24.10;52.80
68215;DHT22;55036;52.138;5.236;2023-08-12T16:11:30;24.00;53.20
68215;DHT22;55036;52.138;5.236;2023-08-12T16:13:57;23.90;51.90